sensor_id;sensor_type;location;lat;lon;timestamp;temperature;humidity
62809;DHT22;48848;39.002;-94.584;2023-05-23T00:01:42;21.50;44.70
62809;DHT22;48848;39.002;-94.584;2023-05-23T00:04:09;21.50;44.60
62809;DHT22;48848;39.002;-94.584;2023-05-23T00:06:44;21.40;44.60
62809;DHT22;48848;39.002;-94.584;2023-05-23T00:09:14;21.40;45.00
62809;DHT22;48848;39.002;-94.584;2023-05-23T00:11:40;21.40;45.00
62809;DHT22;48848;39.002;-94.584;2023-05-23T00:14:15;21.40;45.00
62809;DHT22;48848;39.002;-94.584;2023-05-23T00:16:42;21.60;43.80
62809;DHT22;48848;39.002;-94.584;2023-05-23T00:19:09;22.00;42.70
62809;DHT22;48848;39.002;-94.584;2023-05-23T00:21:36;22.10;42.20
62809;DHT22;48848;39.002;-94.584;2023-05-23T00:24:01;22.20;41.80
62809;DHT22;48848;39.002;-94.584;2023-05-23T00:26:29;22.30;42.00
62809;DHT22;48848;39.002;-94.584;2023-05-23T00:28:55;22.30;41.50
62809;DHT22;48848;39.002;-94.584;2023-05-23T00:31:21;22.20;41.20
62809;DHT22;48848;39.002;-94.584;2023-05-23T00:33:47;22.20;41.10
62809;DHT22;48848;39.002;-94.584;2023-05-23T00:36:13;22.10;41.40
62809;DHT22;48848;39.002;-94.584;2023-05-23T00:38:39;22.20;41.90
62809;DHT22;48848;39.002;-94.584;2023-05-23T00:41:05;22.20;41.20
62809;DHT22;48848;39.002;-94.584;2023-05-23T00:43:31;22.30;41.10
62809;DHT22;48848;39.002;-94.584;2023-05-23T00:45:57;22.30;40.90
62809;DHT22;48848;39.002;-94.584;2023-05-23T00:48:23;22.20;40.70
62809;DHT22;48848;39.002;-94.584;2023-05-23T00:50:50;22.20;40.80
62809;DHT22;48848;39.002;-94.584;2023-05-23T00:53:16;22.10;40.80
62809;DHT22;48848;39.002;-94.584;2023-05-23T00:55:43;22.10;40.80
62809;DHT22;48848;39.002;-94.584;2023-05-23T00:58:08;22.10;40.70
62809;DHT22;48848;39.002;-94.584;2023-05-23T01:00:35;22.10;40.70
62809;DHT22;48848;39.002;-94.584;2023-05-23T01:03:03;22.10;40.60
62809;DHT22;48848;39.002;-94.584;2023-05-23T01:05:29;22.00;40.70
62809;DHT22;48848;39.002;-94.584;2023-05-23T01:07:55;22.00;40.70
62809;DHT22;48848;39.002;-94.584;2023-05-23T01:10:30;22.00;40.80
62809;DHT22;48848;39.002;-94.584;2023-05-23T01:15:30;21.90;41.10
62809;DHT22;48848;39.002;-94.584;2023-05-23T01:20:30;21.60;42.00
62809;DHT22;48848;39.002;-94.584;2023-05-23T01:25:42;21.40;42.70
62809;DHT22;48848;39.002;-94.584;2023-05-23T01:28:11;21.30;42.80
62809;DHT22;48848;39.002;-94.584;2023-05-23T01:30:39;21.30;43.20
62809;DHT22;48848;39.002;-94.584;2023-05-23T01:33:07;21.30;43.10
62809;DHT22;48848;39.002;-94.584;2023-05-23T01:35:33;21.20;44.10
62809;DHT22;48848;39.002;-94.584;2023-05-23T01:37:59;21.20;46.20
62809;DHT22;48848;39.002;-94.584;2023-05-23T01:40:25;21.30;50.40
62809;DHT22;48848;39.002;-94.584;2023-05-23T01:42:52;21.40;52.00
62809;DHT22;48848;39.002;-94.584;2023-05-23T01:45:19;21.70;50.70
62809;DHT22;48848;39.002;-94.584;2023-05-23T01:47:46;22.20;48.30
62809;DHT22;48848;39.002;-94.584;2023-05-23T01:50:13;22.50;47.10
62809;DHT22;48848;39.002;-94.584;2023-05-23T01:52:39;22.70;47.40
62809;DHT22;48848;39.002;-94.584;2023-05-23T01:55:05;22.70;42.90
62809;DHT22;48848;39.002;-94.584;2023-05-23T01:57:36;22.50;42.20
62809;DHT22;48848;39.002;-94.584;2023-05-23T02:00:03;22.40;42.10
62809;DHT22;48848;39.002;-94.584;2023-05-23T02:02:31;22.20;41.70
62809;DHT22;48848;39.002;-94.584;2023-05-23T02:04:56;22.10;41.80
62809;DHT22;48848;39.002;-94.584;2023-05-23T02:07:22;22.10;42.60
62809;DHT22;48848;39.002;-94.584;2023-05-23T02:09:48;22.20;50.50
62809;DHT22;48848;39.002;-94.584;2023-05-23T02:12:14;22.40;52.00
62809;DHT22;48848;39.002;-94.584;2023-05-23T02:14:40;22.60;48.60
62809;DHT22;48848;39.002;-94.584;2023-05-23T02:17:07;22.70;47.60
62809;DHT22;48848;39.002;-94.584;2023-05-23T02:19:34;22.90;46.80
62809;DHT22;48848;39.002;-94.584;2023-05-23T02:22:00;23.00;46.50
62809;DHT22;48848;39.002;-94.584;2023-05-23T02:24:26;23.10;46.40
62809;DHT22;48848;39.002;-94.584;2023-05-23T02:26:52;23.20;45.50
62809;DHT22;48848;39.002;-94.584;2023-05-23T02:29:18;23.10;42.30
62809;DHT22;48848;39.002;-94.584;2023-05-23T02:31:44;22.90;41.90
62809;DHT22;48848;39.002;-94.584;2023-05-23T02:34:10;22.70;41.90
62809;DHT22;48848;39.002;-94.584;2023-05-23T02:36:35;22.50;41.80
62809;DHT22;48848;39.002;-94.584;2023-05-23T02:39:02;22.40;41.90
62809;DHT22;48848;39.002;-94.584;2023-05-23T02:41:28;22.30;42.10
62809;DHT22;48848;39.002;-94.584;2023-05-23T02:43:53;22.30;42.20
62809;DHT22;48848;39.002;-94.584;2023-05-23T02:46:20;22.20;42.10
62809;DHT22;48848;39.002;-94.584;2023-05-23T02:48:45;22.20;45.20
62809;DHT22;48848;39.002;-94.584;2023-05-23T02:51:11;22.40;46.10
62809;DHT22;48848;39.002;-94.584;2023-05-23T02:53:38;22.60;45.70
62809;DHT22;48848;39.002;-94.584;2023-05-23T02:56:04;22.90;45.70
62809;DHT22;48848;39.002;-94.584;2023-05-23T02:58:32;23.00;45.40
62809;DHT22;48848;39.002;-94.584;2023-05-23T03:01:03;23.20;45.40
62809;DHT22;48848;39.002;-94.584;2023-05-23T03:03:29;23.20;45.30
62809;DHT22;48848;39.002;-94.584;2023-05-23T03:05:57;23.30;45.30
62809;DHT22;48848;39.002;-94.584;2023-05-23T03:08:23;23.40;45.20
62809;DHT22;48848;39.002;-94.584;2023-05-23T03:10:49;23.40;43.00
62809;DHT22;48848;39.002;-94.584;2023-05-23T03:13:15;23.20;41.30
62809;DHT22;48848;39.002;-94.584;2023-05-23T03:15:41;22.90;41.10
62809;DHT22;48848;39.002;-94.584;2023-05-23T03:18:07;22.70;41.20
62809;DHT22;48848;39.002;-94.584;2023-05-23T03:20:33;22.50;41.20
62809;DHT22;48848;39.002;-94.584;2023-05-23T03:22:59;22.40;41.40
62809;DHT22;48848;39.002;-94.584;2023-05-23T03:25:25;22.30;41.10
62809;DHT22;48848;39.002;-94.584;2023-05-23T03:27:51;22.30;44.60
62809;DHT22;48848;39.002;-94.584;2023-05-23T03:30:17;22.60;45.10
62809;DHT22;48848;39.002;-94.584;2023-05-23T03:32:42;22.80;44.80
62809;DHT22;48848;39.002;-94.584;2023-05-23T03:35:08;22.90;44.70
62809;DHT22;48848;39.002;-94.584;2023-05-23T03:37:34;23.10;44.90
62809;DHT22;48848;39.002;-94.584;2023-05-23T03:40:00;23.20;45.00
62809;DHT22;48848;39.002;-94.584;2023-05-23T03:42:27;23.20;45.00
62809;DHT22;48848;39.002;-94.584;2023-05-23T03:44:53;23.30;44.90
62809;DHT22;48848;39.002;-94.584;2023-05-23T03:47:18;23.40;44.80
62809;DHT22;48848;39.002;-94.584;2023-05-23T03:49:44;23.40;44.70
62809;DHT22;48848;39.002;-94.584;2023-05-23T03:52:10;23.50;44.80
62809;DHT22;48848;39.002;-94.584;2023-05-23T03:54:36;23.50;44.80
62809;DHT22;48848;39.002;-94.584;2023-05-23T03:57:02;23.50;44.90
62809;DHT22;48848;39.002;-94.584;2023-05-23T03:59:28;23.60;45.00
62809;DHT22;48848;39.002;-94.584;2023-05-23T04:01:54;23.60;45.00
62809;DHT22;48848;39.002;-94.584;2023-05-23T04:04:23;23.60;45.10
62809;DHT22;48848;39.002;-94.584;2023-05-23T04:06:49;23.70;45.00
62809;DHT22;48848;39.002;-94.584;2023-05-23T04:09:16;23.70;45.00
62809;DHT22;48848;39.002;-94.584;2023-05-23T04:11:42;23.70;45.00
62809;DHT22;48848;39.002;-94.584;2023-05-23T04:14:08;23.80;45.00
62809;DHT22;48848;39.002;-94.584;2023-05-23T04:16:34;23.80;45.00
62809;DHT22;48848;39.002;-94.584;2023-05-23T04:19:00;23.80;45.00
62809;DHT22;48848;39.002;-94.584;2023-05-23T04:21:26;23.80;45.00
62809;DHT22;48848;39.002;-94.584;2023-05-23T04:23:52;23.80;44.90
62809;DHT22;48848;39.002;-94.584;2023-05-23T04:26:18;23.80;44.90
62809;DHT22;48848;39.002;-94.584;2023-05-23T04:28:45;23.90;44.90
62809;DHT22;48848;39.002;-94.584;2023-05-23T04:31:11;23.90;44.90
62809;DHT22;48848;39.002;-94.584;2023-05-23T04:33:38;24.00;45.90
62809;DHT22;48848;39.002;-94.584;2023-05-23T04:36:04;24.00;44.90
62809;DHT22;48848;39.002;-94.584;2023-05-23T04:38:29;24.00;44.80
62809;DHT22;48848;39.002;-94.584;2023-05-23T04:40:56;24.00;44.80
62809;DHT22;48848;39.002;-94.584;2023-05-23T04:43:22;24.10;44.70
62809;DHT22;48848;39.002;-94.584;2023-05-23T04:45:51;24.00;44.70
62809;DHT22;48848;39.002;-94.584;2023-05-23T04:48:20;24.00;44.60
62809;DHT22;48848;39.002;-94.584;2023-05-23T04:50:46;24.00;44.70
62809;DHT22;48848;39.002;-94.584;2023-05-23T04:53:13;24.00;44.70
62809;DHT22;48848;39.002;-94.584;2023-05-23T04:55:39;24.00;44.70
62809;DHT22;48848;39.002;-94.584;2023-05-23T04:58:05;24.00;44.60
62809;DHT22;48848;39.002;-94.584;2023-05-23T05:00:32;24.10;44.60
62809;DHT22;48848;39.002;-94.584;2023-05-23T05:02:58;24.10;44.50
62809;DHT22;48848;39.002;-94.584;2023-05-23T05:05:23;24.10;44.40
62809;DHT22;48848;39.002;-94.584;2023-05-23T05:07:49;24.10;44.30
62809;DHT22;48848;39.002;-94.584;2023-05-23T05:10:15;24.20;44.30
62809;DHT22;48848;39.002;-94.584;2023-05-23T05:12:45;24.20;44.40
62809;DHT22;48848;39.002;-94.584;2023-05-23T05:15:11;24.20;44.30
62809;DHT22;48848;39.002;-94.584;2023-05-23T05:17:38;24.20;44.20
62809;DHT22;48848;39.002;-94.584;2023-05-23T05:20:04;24.20;44.30
62809;DHT22;48848;39.002;-94.584;2023-05-23T05:22:33;24.20;44.30
62809;DHT22;48848;39.002;-94.584;2023-05-23T05:25:00;24.20;44.30
62809;DHT22;48848;39.002;-94.584;2023-05-23T05:27:27;24.20;44.30
62809;DHT22;48848;39.002;-94.584;2023-05-23T05:29:52;24.20;44.30
62809;DHT22;48848;39.002;-94.584;2023-05-23T05:32:21;24.20;45.30
62809;DHT22;48848;39.002;-94.584;2023-05-23T05:34:47;24.20;44.30
62809;DHT22;48848;39.002;-94.584;2023-05-23T05:37:13;24.20;44.30
62809;DHT22;48848;39.002;-94.584;2023-05-23T05:39:39;24.20;44.20
62809;DHT22;48848;39.002;-94.584;2023-05-23T05:42:05;24.30;44.20
62809;DHT22;48848;39.002;-94.584;2023-05-23T05:44:31;24.20;44.20
62809;DHT22;48848;39.002;-94.584;2023-05-23T05:46:57;24.10;44.70
62809;DHT22;48848;39.002;-94.584;2023-05-23T05:49:23;23.90;44.70
62809;DHT22;48848;39.002;-94.584;2023-05-23T05:51:48;23.80;45.10
62809;DHT22;48848;39.002;-94.584;2023-05-23T05:54:14;23.70;45.30
62809;DHT22;48848;39.002;-94.584;2023-05-23T05:56:40;23.60;45.50
62809;DHT22;48848;39.002;-94.584;2023-05-23T05:59:06;23.60;45.80
62809;DHT22;48848;39.002;-94.584;2023-05-23T06:01:32;23.40;46.00
62809;DHT22;48848;39.002;-94.584;2023-05-23T06:03:59;23.40;46.20
62809;DHT22;48848;39.002;-94.584;2023-05-23T06:06:25;23.40;46.40
62809;DHT22;48848;39.002;-94.584;2023-05-23T06:08:51;23.50;46.50
62809;DHT22;48848;39.002;-94.584;2023-05-23T06:11:17;23.50;46.40
62809;DHT22;48848;39.002;-94.584;2023-05-23T06:13:43;23.50;46.40
62809;DHT22;48848;39.002;-94.584;2023-05-23T06:16:09;23.40;46.60
62809;DHT22;48848;39.002;-94.584;2023-05-23T06:18:36;23.20;46.80
62809;DHT22;48848;39.002;-94.584;2023-05-23T06:21:02;23.20;47.10
62809;DHT22;48848;39.002;-94.584;2023-05-23T06:23:27;23.30;46.90
62809;DHT22;48848;39.002;-94.584;2023-05-23T06:25:53;23.20;46.70
62809;DHT22;48848;39.002;-94.584;2023-05-23T06:28:19;23.20;46.70
62809;DHT22;48848;39.002;-94.584;2023-05-23T06:30:45;23.10;46.80
62809;DHT22;48848;39.002;-94.584;2023-05-23T06:33:11;23.00;47.00
62809;DHT22;48848;39.002;-94.584;2023-05-23T06:35:37;23.00;47.00
62809;DHT22;48848;39.002;-94.584;2023-05-23T06:38:03;23.10;47.30
62809;DHT22;48848;39.002;-94.584;2023-05-23T06:40:29;23.00;47.30
62809;DHT22;48848;39.002;-94.584;2023-05-23T06:42:54;23.10;47.40
62809;DHT22;48848;39.002;-94.584;2023-05-23T06:45:20;23.00;47.60
62809;DHT22;48848;39.002;-94.584;2023-05-23T06:47:46;23.00;47.70
62809;DHT22;48848;39.002;-94.584;2023-05-23T06:50:13;22.90;47.80
62809;DHT22;48848;39.002;-94.584;2023-05-23T06:52:39;22.90;47.80
62809;DHT22;48848;39.002;-94.584;2023-05-23T06:55:07;22.80;48.10
62809;DHT22;48848;39.002;-94.584;2023-05-23T06:57:33;22.80;48.10
62809;DHT22;48848;39.002;-94.584;2023-05-23T06:59:59;22.70;48.00
62809;DHT22;48848;39.002;-94.584;2023-05-23T07:02:24;22.80;48.30
62809;DHT22;48848;39.002;-94.584;2023-05-23T07:04:50;22.80;48.20
62809;DHT22;48848;39.002;-94.584;2023-05-23T07:07:16;22.80;48.10
62809;DHT22;48848;39.002;-94.584;2023-05-23T07:09:42;22.80;48.00
62809;DHT22;48848;39.002;-94.584;2023-05-23T07:12:08;22.80;47.90
62809;DHT22;48848;39.002;-94.584;2023-05-23T07:14:34;22.90;47.80
62809;DHT22;48848;39.002;-94.584;2023-05-23T07:17:00;22.80;47.90
62809;DHT22;48848;39.002;-94.584;2023-05-23T07:19:26;22.90;47.70
62809;DHT22;48848;39.002;-94.584;2023-05-23T07:21:51;22.90;48.80
62809;DHT22;48848;39.002;-94.584;2023-05-23T07:24:17;22.90;47.80
62809;DHT22;48848;39.002;-94.584;2023-05-23T07:26:43;23.00;47.60
62809;DHT22;48848;39.002;-94.584;2023-05-23T07:29:09;22.90;47.70
62809;DHT22;48848;39.002;-94.584;2023-05-23T07:31:35;22.90;47.80
62809;DHT22;48848;39.002;-94.584;2023-05-23T07:34:01;22.90;47.80
62809;DHT22;48848;39.002;-94.584;2023-05-23T07:36:27;22.90;47.80
62809;DHT22;48848;39.002;-94.584;2023-05-23T07:38:53;22.90;47.80
62809;DHT22;48848;39.002;-94.584;2023-05-23T07:41:19;22.90;47.70
62809;DHT22;48848;39.002;-94.584;2023-05-23T07:43:46;22.90;47.70
62809;DHT22;48848;39.002;-94.584;2023-05-23T07:46:12;22.80;47.60
62809;DHT22;48848;39.002;-94.584;2023-05-23T07:48:38;22.90;47.60
62809;DHT22;48848;39.002;-94.584;2023-05-23T07:51:04;22.90;47.50
62809;DHT22;48848;39.002;-94.584;2023-05-23T07:53:30;22.90;47.40
62809;DHT22;48848;39.002;-94.584;2023-05-23T07:55:56;22.90;47.20
62809;DHT22;48848;39.002;-94.584;2023-05-23T07:58:22;22.90;47.40
62809;DHT22;48848;39.002;-94.584;2023-05-23T08:00:47;22.90;47.40
62809;DHT22;48848;39.002;-94.584;2023-05-23T08:03:14;22.80;47.40
62809;DHT22;48848;39.002;-94.584;2023-05-23T08:05:41;22.80;47.60
62809;DHT22;48848;39.002;-94.584;2023-05-23T08:08:07;22.80;47.60
62809;DHT22;48848;39.002;-94.584;2023-05-23T08:10:33;22.80;47.60
62809;DHT22;48848;39.002;-94.584;2023-05-23T08:12:59;22.80;47.60
62809;DHT22;48848;39.002;-94.584;2023-05-23T08:15:25;22.80;47.50
62809;DHT22;48848;39.002;-94.584;2023-05-23T08:17:51;22.80;47.40
62809;DHT22;48848;39.002;-94.584;2023-05-23T08:20:21;22.80;47.40
62809;DHT22;48848;39.002;-94.584;2023-05-23T08:22:47;22.80;47.20
62809;DHT22;48848;39.002;-94.584;2023-05-23T08:25:12;22.80;47.10
62809;DHT22;48848;39.002;-94.584;2023-05-23T08:27:38;23.00;47.00
62809;DHT22;48848;39.002;-94.584;2023-05-23T08:30:04;23.00;46.70
62809;DHT22;48848;39.002;-94.584;2023-05-23T08:32:31;23.00;46.70
62809;DHT22;48848;39.002;-94.584;2023-05-23T08:34:57;23.00;46.90
62809;DHT22;48848;39.002;-94.584;2023-05-23T08:37:22;22.80;47.10
62809;DHT22;48848;39.002;-94.584;2023-05-23T08:39:48;22.70;47.20
62809;DHT22;48848;39.002;-94.584;2023-05-23T08:42:14;22.80;47.10
62809;DHT22;48848;39.002;-94.584;2023-05-23T08:44:40;22.80;47.00
62809;DHT22;48848;39.002;-94.584;2023-05-23T08:47:06;22.80;47.00
62809;DHT22;48848;39.002;-94.584;2023-05-23T08:49:33;22.80;46.90
62809;DHT22;48848;39.002;-94.584;2023-05-23T08:52:00;22.90;46.90
62809;DHT22;48848;39.002;-94.584;2023-05-23T08:54:26;23.00;46.70
62809;DHT22;48848;39.002;-94.584;2023-05-23T08:56:53;23.00;46.70
62809;DHT22;48848;39.002;-94.584;2023-05-23T08:59:20;22.90;46.80
62809;DHT22;48848;39.002;-94.584;2023-05-23T09:01:46;22.90;46.80
62809;DHT22;48848;39.002;-94.584;2023-05-23T09:04:12;22.90;46.80
62809;DHT22;48848;39.002;-94.584;2023-05-23T09:06:38;22.90;46.80
62809;DHT22;48848;39.002;-94.584;2023-05-23T09:09:04;22.90;46.70
62809;DHT22;48848;39.002;-94.584;2023-05-23T09:11:30;22.90;46.60
62809;DHT22;48848;39.002;-94.584;2023-05-23T09:13:58;22.90;46.70
62809;DHT22;48848;39.002;-94.584;2023-05-23T09:16:26;22.90;46.60
62809;DHT22;48848;39.002;-94.584;2023-05-23T09:18:56;22.90;47.50
62809;DHT22;48848;39.002;-94.584;2023-05-23T09:21:22;22.90;46.60
62809;DHT22;48848;39.002;-94.584;2023-05-23T09:23:48;22.90;46.60
62809;DHT22;48848;39.002;-94.584;2023-05-23T09:26:14;22.90;46.60
62809;DHT22;48848;39.002;-94.584;2023-05-23T09:28:41;22.90;46.70
62809;DHT22;48848;39.002;-94.584;2023-05-23T09:31:07;22.90;46.70
62809;DHT22;48848;39.002;-94.584;2023-05-23T09:33:44;22.80;46.70
62809;DHT22;48848;39.002;-94.584;2023-05-23T09:36:13;22.90;46.70
62809;DHT22;48848;39.002;-94.584;2023-05-23T09:38:40;22.90;46.50
62809;DHT22;48848;39.002;-94.584;2023-05-23T09:41:06;22.90;46.60
62809;DHT22;48848;39.002;-94.584;2023-05-23T09:43:32;22.80;46.60
62809;DHT22;48848;39.002;-94.584;2023-05-23T09:46:08;22.90;46.60
62809;DHT22;48848;39.002;-94.584;2023-05-23T09:48:34;22.80;46.60
62809;DHT22;48848;39.002;-94.584;2023-05-23T09:51:03;22.90;46.60
62809;DHT22;48848;39.002;-94.584;2023-05-23T09:53:29;22.90;46.40
62809;DHT22;48848;39.002;-94.584;2023-05-23T09:55:55;22.90;46.60
62809;DHT22;48848;39.002;-94.584;2023-05-23T09:58:22;22.80;46.60
62809;DHT22;48848;39.002;-94.584;2023-05-23T10:00:49;22.90;46.60
62809;DHT22;48848;39.002;-94.584;2023-05-23T10:03:21;22.90;46.60
62809;DHT22;48848;39.002;-94.584;2023-05-23T10:05:49;22.90;46.60
62809;DHT22;48848;39.002;-94.584;2023-05-23T10:13:49;22.90;46.50
62809;DHT22;48848;39.002;-94.584;2023-05-23T10:19:04;22.90;46.60
62809;DHT22;48848;39.002;-94.584;2023-05-23T10:21:49;22.90;46.20
62809;DHT22;48848;39.002;-94.584;2023-05-23T10:24:15;22.90;46.40
62809;DHT22;48848;39.002;-94.584;2023-05-23T10:26:42;22.80;46.50
62809;DHT22;48848;39.002;-94.584;2023-05-23T10:29:08;22.90;46.40
62809;DHT22;48848;39.002;-94.584;2023-05-23T10:31:34;22.90;46.20
62809;DHT22;48848;39.002;-94.584;2023-05-23T10:37:02;22.90;46.30
62809;DHT22;48848;39.002;-94.584;2023-05-23T10:42:14;22.90;46.30
62809;DHT22;48848;39.002;-94.584;2023-05-23T10:44:41;22.90;46.10
62809;DHT22;48848;39.002;-94.584;2023-05-23T10:47:07;22.70;46.30
62809;DHT22;48848;39.002;-94.584;2023-05-23T10:49:37;22.80;46.20
62809;DHT22;48848;39.002;-94.584;2023-05-23T10:52:04;22.80;46.20
62809;DHT22;48848;39.002;-94.584;2023-05-23T10:54:44;22.90;46.20
62809;DHT22;48848;39.002;-94.584;2023-05-23T10:57:11;22.90;46.00
62809;DHT22;48848;39.002;-94.584;2023-05-23T10:59:41;22.90;47.10
62809;DHT22;48848;39.002;-94.584;2023-05-23T11:02:13;22.80;46.10
62809;DHT22;48848;39.002;-94.584;2023-05-23T11:04:42;22.70;46.60
62809;DHT22;48848;39.002;-94.584;2023-05-23T11:07:31;22.60;46.90
62809;DHT22;48848;39.002;-94.584;2023-05-23T11:10:29;22.60;47.00
62809;DHT22;48848;39.002;-94.584;2023-05-23T11:12:48;22.50;47.10
62809;DHT22;48848;39.002;-94.584;2023-05-23T11:17:50;22.40;47.30
62809;DHT22;48848;39.002;-94.584;2023-05-23T11:20:17;22.40;47.50
62809;DHT22;48848;39.002;-94.584;2023-05-23T11:22:59;22.40;47.30
62809;DHT22;48848;39.002;-94.584;2023-05-23T11:25:41;22.40;47.50
62809;DHT22;48848;39.002;-94.584;2023-05-23T11:28:08;22.40;47.30
62809;DHT22;48848;39.002;-94.584;2023-05-23T11:30:34;22.40;47.40
62809;DHT22;48848;39.002;-94.584;2023-05-23T11:33:05;22.30;47.40
62809;DHT22;48848;39.002;-94.584;2023-05-23T11:35:32;22.30;47.40
62809;DHT22;48848;39.002;-94.584;2023-05-23T11:37:59;22.40;47.50
62809;DHT22;48848;39.002;-94.584;2023-05-23T11:40:29;22.40;47.40
62809;DHT22;48848;39.002;-94.584;2023-05-23T11:42:56;22.40;47.30
62809;DHT22;48848;39.002;-94.584;2023-05-23T11:45:23;22.30;47.40
62809;DHT22;48848;39.002;-94.584;2023-05-23T11:47:49;22.30;47.60
62809;DHT22;48848;39.002;-94.584;2023-05-23T11:50:15;22.30;47.40
62809;DHT22;48848;39.002;-94.584;2023-05-23T11:52:41;22.30;47.30
62809;DHT22;48848;39.002;-94.584;2023-05-23T11:55:08;22.30;47.40
62809;DHT22;48848;39.002;-94.584;2023-05-23T11:57:37;22.30;47.40
62809;DHT22;48848;39.002;-94.584;2023-05-23T12:00:05;22.30;47.50
62809;DHT22;48848;39.002;-94.584;2023-05-23T12:02:37;22.20;47.50
62809;DHT22;48848;39.002;-94.584;2023-05-23T12:05:06;22.20;47.40
62809;DHT22;48848;39.002;-94.584;2023-05-23T12:07:32;22.30;47.50
62809;DHT22;48848;39.002;-94.584;2023-05-23T12:09:58;22.30;47.40
62809;DHT22;48848;39.002;-94.584;2023-05-23T12:12:24;22.30;47.50
62809;DHT22;48848;39.002;-94.584;2023-05-23T12:14:49;22.30;47.50
62809;DHT22;48848;39.002;-94.584;2023-05-23T12:17:20;22.10;47.60
62809;DHT22;48848;39.002;-94.584;2023-05-23T12:19:45;22.10;47.60
62809;DHT22;48848;39.002;-94.584;2023-05-23T12:22:11;22.20;47.50
62809;DHT22;48848;39.002;-94.584;2023-05-23T12:24:43;22.20;47.50
62809;DHT22;48848;39.002;-94.584;2023-05-23T12:27:09;22.20;47.60
62809;DHT22;48848;39.002;-94.584;2023-05-23T12:29:35;22.10;47.70
62809;DHT22;48848;39.002;-94.584;2023-05-23T12:32:03;22.10;47.80
62809;DHT22;48848;39.002;-94.584;2023-05-23T12:34:30;22.00;47.90
62809;DHT22;48848;39.002;-94.584;2023-05-23T12:36:56;22.10;48.00
62809;DHT22;48848;39.002;-94.584;2023-05-23T12:39:26;22.10;47.80
62809;DHT22;48848;39.002;-94.584;2023-05-23T12:41:52;22.00;48.00
62809;DHT22;48848;39.002;-94.584;2023-05-23T12:44:20;22.00;48.00
62809;DHT22;48848;39.002;-94.584;2023-05-23T12:46:47;22.00;47.90
62809;DHT22;48848;39.002;-94.584;2023-05-23T12:49:12;22.00;48.00
62809;DHT22;48848;39.002;-94.584;2023-05-23T12:51:39;22.00;48.00
62809;DHT22;48848;39.002;-94.584;2023-05-23T12:54:05;22.00;48.20
62809;DHT22;48848;39.002;-94.584;2023-05-23T12:56:32;22.10;48.00
62809;DHT22;48848;39.002;-94.584;2023-05-23T12:58:58;22.10;48.20
62809;DHT22;48848;39.002;-94.584;2023-05-23T13:01:26;22.00;48.30
62809;DHT22;48848;39.002;-94.584;2023-05-23T13:03:52;22.10;48.10
62809;DHT22;48848;39.002;-94.584;2023-05-23T13:06:18;21.90;48.60
62809;DHT22;48848;39.002;-94.584;2023-05-23T13:08:44;21.90;48.80
62809;DHT22;48848;39.002;-94.584;2023-05-23T13:11:10;22.00;48.80
62809;DHT22;48848;39.002;-94.584;2023-05-23T13:13:36;21.90;49.10
62809;DHT22;48848;39.002;-94.584;2023-05-23T13:16:02;21.80;49.30
62809;DHT22;48848;39.002;-94.584;2023-05-23T13:18:27;22.00;49.20
62809;DHT22;48848;39.002;-94.584;2023-05-23T13:20:53;21.90;49.20
62809;DHT22;48848;39.002;-94.584;2023-05-23T13:23:19;21.90;49.40
62809;DHT22;48848;39.002;-94.584;2023-05-23T13:25:45;21.90;49.20
62809;DHT22;48848;39.002;-94.584;2023-05-23T13:28:11;22.00;49.00
62809;DHT22;48848;39.002;-94.584;2023-05-23T13:30:37;22.00;49.00
62809;DHT22;48848;39.002;-94.584;2023-05-23T13:33:03;22.10;49.10
62809;DHT22;48848;39.002;-94.584;2023-05-23T13:35:29;22.10;49.10
62809;DHT22;48848;39.002;-94.584;2023-05-23T13:37:55;22.00;49.10
62809;DHT22;48848;39.002;-94.584;2023-05-23T13:40:21;22.10;49.10
62809;DHT22;48848;39.002;-94.584;2023-05-23T13:42:48;22.10;49.00
62809;DHT22;48848;39.002;-94.584;2023-05-23T13:45:17;22.10;50.20
62809;DHT22;48848;39.002;-94.584;2023-05-23T13:47:43;22.10;49.50
62809;DHT22;48848;39.002;-94.584;2023-05-23T13:50:09;22.10;49.20
62809;DHT22;48848;39.002;-94.584;2023-05-23T13:52:36;22.10;49.10
62809;DHT22;48848;39.002;-94.584;2023-05-23T13:55:02;22.10;49.00
62809;DHT22;48848;39.002;-94.584;2023-05-23T13:57:29;22.10;50.00
62809;DHT22;48848;39.002;-94.584;2023-05-23T13:59:54;22.10;48.90
62809;DHT22;48848;39.002;-94.584;2023-05-23T14:02:20;22.10;48.80
62809;DHT22;48848;39.002;-94.584;2023-05-23T14:04:47;22.20;48.90
62809;DHT22;48848;39.002;-94.584;2023-05-23T14:07:13;22.10;48.90
62809;DHT22;48848;39.002;-94.584;2023-05-23T14:09:39;22.20;49.10
62809;DHT22;48848;39.002;-94.584;2023-05-23T14:12:05;22.10;49.40
62809;DHT22;48848;39.002;-94.584;2023-05-23T14:14:30;22.10;49.60
62809;DHT22;48848;39.002;-94.584;2023-05-23T14:16:57;22.20;49.80
62809;DHT22;48848;39.002;-94.584;2023-05-23T14:19:23;22.10;49.80
62809;DHT22;48848;39.002;-94.584;2023-05-23T14:21:48;22.10;49.50
62809;DHT22;48848;39.002;-94.584;2023-05-23T14:24:15;22.10;49.50
62809;DHT22;48848;39.002;-94.584;2023-05-23T14:26:41;22.10;49.30
62809;DHT22;48848;39.002;-94.584;2023-05-23T14:29:06;22.30;49.20
62809;DHT22;48848;39.002;-94.584;2023-05-23T14:31:32;22.20;49.30
62809;DHT22;48848;39.002;-94.584;2023-05-23T14:33:58;22.10;49.30
62809;DHT22;48848;39.002;-94.584;2023-05-23T14:36:24;22.20;49.10
62809;DHT22;48848;39.002;-94.584;2023-05-23T14:38:50;22.20;49.10
62809;DHT22;48848;39.002;-94.584;2023-05-23T14:41:16;22.30;49.00
62809;DHT22;48848;39.002;-94.584;2023-05-23T14:43:43;22.10;49.10
62809;DHT22;48848;39.002;-94.584;2023-05-23T14:46:08;22.10;49.10
62809;DHT22;48848;39.002;-94.584;2023-05-23T14:48:34;22.20;49.00
62809;DHT22;48848;39.002;-94.584;2023-05-23T14:51:01;22.20;49.00
62809;DHT22;48848;39.002;-94.584;2023-05-23T14:53:27;22.10;49.10
62809;DHT22;48848;39.002;-94.584;2023-05-23T14:55:53;22.20;49.10
62809;DHT22;48848;39.002;-94.584;2023-05-23T14:58:20;22.00;49.50
62809;DHT22;48848;39.002;-94.584;2023-05-23T15:00:46;22.10;49.50
62809;DHT22;48848;39.002;-94.584;2023-05-23T15:03:13;22.20;49.40
62809;DHT22;48848;39.002;-94.584;2023-05-23T15:05:39;22.30;49.20
62809;DHT22;48848;39.002;-94.584;2023-05-23T15:08:05;22.30;49.10
62809;DHT22;48848;39.002;-94.584;2023-05-23T15:10:30;22.30;49.20
62809;DHT22;48848;39.002;-94.584;2023-05-23T15:12:57;22.30;49.20
62809;DHT22;48848;39.002;-94.584;2023-05-23T15:15:23;22.30;49.20
62809;DHT22;48848;39.002;-94.584;2023-05-23T15:17:49;22.20;49.30
62809;DHT22;48848;39.002;-94.584;2023-05-23T15:20:16;22.30;49.30
62809;DHT22;48848;39.002;-94.584;2023-05-23T15:22:42;22.30;49.20
62809;DHT22;48848;39.002;-94.584;2023-05-23T15:25:08;22.40;49.10